Time,TemperatureF,DewpointF,PressureIn,WindDirection,WindDirectionDegrees,WindSpeedMPH,WindSpeedGustMPH,Humidity,HourlyPrecipIn,Conditions,Clouds,dailyrainin,SolarRadiationWatts/m^2,SoftwareType,DateUTC
2013-09-02 00:01:00,70.6,70.6,29.80,ESE,111,0.0,0.0,100,0.00,,,0.00,1746,WeatherCatV1.15B25,2013-09-02 04:01:00,
2013-09-02 00:03:00,70.6,70.6,29.80,ESE,111,0.0,0.0,100,0.00,,,0.00,1746,WeatherCatV1.15B25,2013-09-02 04:03:00,
2013-09-02 00:08:00,70.6,70.6,29.79,ESE,108,0.0,0.0,100,0.00,,,0.00,1746,WeatherCatV1.15B25,2013-09-02 04:08:00,
2013-09-02 00:13:00,70.6,70.6,29.79,East,92,0.0,1.0,100,0.00,,,0.00,1746,WeatherCatV1.15B25,2013-09-02 04:13:00,
2013-09-02 00:18:00,70.5,70.5,29.79,East,92,0.0,0.0,100,0.00,,,0.00,1744,WeatherCatV1.15B25,2013-09-02 04:18:00,
2013-09-02 00:23:00,70.4,70.4,29.79,East,92,0.0,0.0,100,0.00,,,0.00,1744,WeatherCatV1.15B25,2013-09-02 04:23:00,
2013-09-02 00:28:00,70.4,70.4,29.79,East,87,0.0,0.0,100,0.00,,,0.00,1744,WeatherCatV1.15B25,2013-09-02 04:28:00,
2013-09-02 00:33:00,70.3,70.3,29.79,East,87,0.0,0.0,100,0.00,,,0.00,1744,WeatherCatV1.15B25,2013-09-02 04:33:00,
2013-09-02 00:38:00,70.2,70.2,29.79,East,94,0.0,1.0,100,0.00,,,0.00,1744,WeatherCatV1.15B25,2013-09-02 04:38:00,
2013-09-02 00:43:00,70.2,70.2,29.79,East,94,0.0,1.0,100,0.00,,,0.00,1742,WeatherCatV1.15B25,2013-09-02 04:43:00,
2013-09-02 00:48:00,70.2,70.2,29.79,East,99,0.0,0.0,100,0.00,,,0.00,1742,WeatherCatV1.15B25,2013-09-02 04:48:00,
2013-09-02 00:53:00,70.1,70.1,29.79,West,279,0.0,0.0,100,0.00,,,0.00,1742,WeatherCatV1.15B25,2013-09-02 04:53:00,
2013-09-02 00:58:00,69.9,69.9,29.79,West,262,0.0,0.0,100,0.00,,,0.00,1742,WeatherCatV1.15B25,2013-09-02 04:58:00,
2013-09-02 01:03:00,69.8,69.8,29.79,West,260,0.0,0.0,100,0.00,,,0.00,1742,WeatherCatV1.15B25,2013-09-02 05:03:00,
2013-09-02 01:08:00,69.8,69.8,29.79,West,260,0.0,0.0,100,0.00,,,0.00,1742,WeatherCatV1.15B25,2013-09-02 05:08:00,
2013-09-02 01:13:00,69.8,69.8,29.79,West,260,0.0,0.0,100,0.00,,,0.00,1740,WeatherCatV1.15B25,2013-09-02 05:13:00,
2013-09-02 01:18:00,69.8,69.8,29.79,West,260,0.0,0.0,100,0.00,,,0.00,1740,WeatherCatV1.15B25,2013-09-02 05:18:00,
2013-09-02 01:23:00,69.7,69.7,29.79,WSW,256,0.0,0.0,100,0.00,,,0.00,1740,WeatherCatV1.15B25,2013-09-02 05:23:00,
2013-09-02 01:28:00,69.7,69.7,29.79,WSW,256,0.0,0.0,100,0.00,,,0.00,1740,WeatherCatV1.15B25,2013-09-02 05:28:00,
2013-09-02 01:33:00,69.7,69.7,29.79,WSW,252,0.0,0.0,100,0.00,,,0.00,1740,WeatherCatV1.15B25,2013-09-02 05:33:00,
2013-09-02 01:38:00,69.8,69.8,29.79,WSW,252,0.0,0.0,100,0.00,,,0.00,1740,WeatherCatV1.15B25,2013-09-02 05:38:00,
2013-09-02 01:43:00,69.8,69.8,29.79,WSW,249,0.0,0.0,100,0.00,,,0.00,1740,WeatherCatV1.15B25,2013-09-02 05:43:00,
2013-09-02 01:48:00,69.8,69.8,29.79,ESE,102,0.0,0.0,100,0.00,,,0.00,1740,WeatherCatV1.15B25,2013-09-02 05:48:00,
2013-09-02 01:53:00,69.8,69.8,29.78,ESE,102,0.0,0.0,100,0.00,,,0.00,1738,WeatherCatV1.15B25,2013-09-02 05:53:00,
2013-09-02 01:58:00,69.8,69.8,29.78,ESE,102,0.0,0.0,100,0.00,,,0.00,1738,WeatherCatV1.15B25,2013-09-02 05:58:00,
2013-09-02 02:03:00,69.9,69.9,29.79,ESE,102,0.0,0.0,100,0.00,,,0.00,1738,WeatherCatV1.15B25,2013-09-02 06:03:00,
2013-09-02 02:08:00,69.9,69.9,29.78,ESE,102,0.0,0.0,100,0.00,,,0.00,1738,WeatherCatV1.15B25,2013-09-02 06:08:00,
2013-09-02 02:13:00,69.9,69.9,29.78,ESE,102,0.0,0.0,100,0.00,,,0.00,1738,WeatherCatV1.15B25,2013-09-02 06:13:00,
2013-09-02 02:18:00,69.9,69.9,29.78,ESE,102,0.0,0.0,100,0.00,,,0.00,1738,WeatherCatV1.15B25,2013-09-02 06:18:00,
2013-09-02 02:23:00,69.9,69.9,29.78,ESE,102,0.0,0.0,100,0.00,,,0.00,1738,WeatherCatV1.15B25,2013-09-02 06:23:00,
2013-09-02 02:28:00,69.9,69.9,29.78,ESE,102,0.0,0.0,100,0.00,,,0.00,1738,WeatherCatV1.15B25,2013-09-02 06:28:00,
2013-09-02 02:33:00,69.9,69.9,29.78,ESE,105,0.0,0.0,100,0.00,,,0.00,1737,WeatherCatV1.15B25,2013-09-02 06:33:00,
2013-09-02 02:38:00,69.8,69.8,29.78,ESE,105,0.0,0.0,100,0.00,,,0.00,1737,WeatherCatV1.15B25,2013-09-02 06:38:00,
2013-09-02 02:43:00,69.8,69.8,29.78,ESE,105,0.0,0.0,100,0.00,,,0.00,1737,WeatherCatV1.15B25,2013-09-02 06:43:00,
2013-09-02 02:48:00,69.8,69.8,29.78,ESE,105,0.0,0.0,100,0.00,,,0.00,1737,WeatherCatV1.15B25,2013-09-02 06:48:00,
2013-09-02 02:53:00,69.8,69.8,29.77,ESE,105,0.0,0.0,100,0.00,,,0.00,1737,WeatherCatV1.15B25,2013-09-02 06:53:00,
2013-09-02 02:58:00,69.8,69.8,29.77,ESE,105,0.0,0.0,100,0.00,,,0.00,1737,WeatherCatV1.15B25,2013-09-02 06:58:00,
2013-09-02 03:03:00,69.8,69.8,29.76,ESE,105,0.0,0.0,100,0.00,,,0.00,1737,WeatherCatV1.15B25,2013-09-02 07:03:00,
2013-09-02 03:08:00,69.8,69.8,29.76,ESE,105,0.0,0.0,100,0.00,,,0.00,1735,WeatherCatV1.15B25,2013-09-02 07:08:00,
2013-09-02 03:13:00,69.7,69.7,29.76,ESE,105,0.0,0.0,100,0.00,,,0.00,1735,WeatherCatV1.15B25,2013-09-02 07:13:00,
2013-09-02 03:18:00,69.7,69.7,29.76,ESE,105,0.0,0.0,100,0.00,,,0.00,1735,WeatherCatV1.15B25,2013-09-02 07:18:00,
2013-09-02 03:23:00,69.8,69.8,29.76,ESE,105,0.0,0.0,100,0.00,,,0.00,1735,WeatherCatV1.15B25,2013-09-02 07:23:00,
2013-09-02 03:28:00,69.8,69.8,29.76,ESE,105,0.0,0.0,100,0.00,,,0.00,1735,WeatherCatV1.15B25,2013-09-02 07:28:00,
2013-09-02 03:33:00,69.8,69.8,29.76,ESE,105,0.0,0.0,100,0.00,,,0.00,1735,WeatherCatV1.15B25,2013-09-02 07:33:00,
2013-09-02 03:38:00,69.8,69.8,29.76,ESE,105,0.0,0.0,100,0.00,,,0.00,1735,WeatherCatV1.15B25,2013-09-02 07:38:00,
2013-09-02 03:43:00,69.9,69.9,29.76,ESE,105,0.0,0.0,100,0.00,,,0.00,1735,WeatherCatV1.15B25,2013-09-02 07:43:00,
2013-09-02 03:48:00,70.1,70.1,29.76,ESE,105,0.0,0.0,100,0.00,,,0.00,1735,WeatherCatV1.15B25,2013-09-02 07:48:00,
2013-09-02 03:53:00,70.1,70.1,29.76,ESE,118,0.0,1.0,100,0.00,,,0.00,1735,WeatherCatV1.15B25,2013-09-02 07:53:00,
2013-09-02 03:58:00,70.2,70.2,29.76,ESE,118,0.0,0.0,100,0.00,,,0.00,1735,WeatherCatV1.15B25,2013-09-02 07:58:00,
2013-09-02 04:03:00,70.2,70.2,29.76,ESE,118,0.0,0.0,100,0.00,,,0.00,1735,WeatherCatV1.15B25,2013-09-02 08:03:00,
2013-09-02 04:08:00,70.3,70.3,29.76,ESE,114,0.0,0.0,100,0.00,,,0.00,1733,WeatherCatV1.15B25,2013-09-02 08:08:00,
2013-09-02 04:13:00,70.3,70.3,29.76,ESE,115,0.0,0.0,100,0.00,,,0.00,1733,WeatherCatV1.15B25,2013-09-02 08:13:00,
2013-09-02 04:18:00,70.3,70.3,29.76,ESE,115,0.0,0.0,100,0.00,,,0.00,1733,WeatherCatV1.15B25,2013-09-02 08:18:00,
2013-09-02 04:23:00,70.2,70.2,29.76,ESE,115,0.0,0.0,100,0.00,,,0.00,1733,WeatherCatV1.15B25,2013-09-02 08:23:00,
2013-09-02 04:28:00,69.9,69.9,29.76,ESE,115,0.0,0.0,100,0.00,,,0.00,1733,WeatherCatV1.15B25,2013-09-02 08:28:00,
2013-09-02 04:33:00,69.8,69.8,29.76,ESE,115,0.0,0.0,100,0.00,,,0.00,1733,WeatherCatV1.15B25,2013-09-02 08:33:00,
2013-09-02 04:38:00,69.8,69.8,29.76,ESE,121,0.0,0.0,100,0.00,,,0.00,1733,WeatherCatV1.15B25,2013-09-02 08:38:00,
2013-09-02 04:43:00,69.7,69.7,29.76,ESE,121,0.0,1.0,100,0.00,,,0.00,1733,WeatherCatV1.15B25,2013-09-02 08:43:00,
2013-09-02 04:48:00,69.7,69.7,29.76,ESE,121,0.0,0.0,100,0.00,,,0.00,1733,WeatherCatV1.15B25,2013-09-02 08:48:00,
2013-09-02 04:53:00,69.5,69.5,29.76,ESE,121,0.0,0.0,100,0.00,,,0.00,1733,WeatherCatV1.15B25,2013-09-02 08:53:00,
2013-09-02 04:58:00,69.4,69.4,29.76,ESE,121,0.0,0.0,100,0.00,,,0.00,1733,WeatherCatV1.15B25,2013-09-02 08:58:00,
2013-09-02 05:03:00,69.4,69.4,29.76,ESE,121,0.0,0.0,100,0.00,,,0.00,1733,WeatherCatV1.15B25,2013-09-02 09:03:00,
2013-09-02 05:08:00,69.4,69.4,29.76,ESE,121,0.0,0.0,100,0.00,,,0.00,1733,WeatherCatV1.15B25,2013-09-02 09:08:00,
2013-09-02 05:13:00,69.4,69.4,29.76,ESE,121,0.0,0.0,100,0.00,,,0.00,1733,WeatherCatV1.15B25,2013-09-02 09:13:00,
2013-09-02 05:18:00,69.4,69.4,29.76,ESE,121,0.0,0.0,100,0.00,,,0.00,1733,WeatherCatV1.15B25,2013-09-02 09:18:00,
2013-09-02 05:23:00,69.5,69.5,29.77,ESE,121,0.0,0.0,100,0.00,,,0.00,1733,WeatherCatV1.15B25,2013-09-02 09:23:00,
2013-09-02 05:28:00,69.7,69.7,29.77,ESE,121,0.0,0.0,100,0.00,,,0.00,1733,WeatherCatV1.15B25,2013-09-02 09:28:00,
2013-09-02 05:33:00,69.8,69.8,29.76,ESE,121,0.0,0.0,100,0.00,,,0.00,1733,WeatherCatV1.15B25,2013-09-02 09:33:00,
2013-09-02 05:38:00,69.8,69.8,29.76,ESE,121,0.0,0.0,100,0.00,,,0.00,1731,WeatherCatV1.15B25,2013-09-02 09:38:00,
2013-09-02 05:43:00,69.8,69.8,29.76,ESE,121,0.0,0.0,100,0.00,,,0.00,1731,WeatherCatV1.15B25,2013-09-02 09:43:00,
2013-09-02 05:48:00,69.8,69.8,29.76,ESE,121,0.0,0.0,100,0.00,,,0.00,1731,WeatherCatV1.15B25,2013-09-02 09:48:00,
2013-09-02 05:53:00,69.9,69.9,29.76,ESE,121,0.0,0.0,100,0.00,,,0.00,1731,WeatherCatV1.15B25,2013-09-02 09:53:00,
2013-09-02 05:58:00,69.9,69.9,29.77,ESE,121,0.0,0.0,100,0.00,,,0.00,1731,WeatherCatV1.15B25,2013-09-02 09:58:00,
2013-09-02 06:03:00,69.9,69.9,29.77,ESE,121,0.0,0.0,100,0.00,,,0.00,1730,WeatherCatV1.15B25,2013-09-02 10:03:00,
2013-09-02 06:08:00,69.9,69.9,29.77,ESE,121,0.0,0.0,100,0.00,,,0.00,1730,WeatherCatV1.15B25,2013-09-02 10:08:00,
2013-09-02 06:13:00,70.0,70.0,29.77,ESE,121,0.0,0.0,100,0.00,,,0.00,1730,WeatherCatV1.15B25,2013-09-02 10:13:00,
2013-09-02 06:18:00,70.1,70.1,29.77,ESE,121,0.0,0.0,100,0.00,,,0.00,1730,WeatherCatV1.15B25,2013-09-02 10:18:00,
2013-09-02 06:23:00,70.1,70.1,29.77,ESE,121,0.0,0.0,100,0.00,,,0.01,1730,WeatherCatV1.15B25,2013-09-02 10:23:00,
2013-09-02 06:28:00,70.1,70.1,29.77,ESE,121,0.0,0.0,100,0.00,,,0.01,1730,WeatherCatV1.15B25,2013-09-02 10:28:00,
2013-09-02 06:33:00,70.1,70.1,29.77,ESE,121,0.0,0.0,100,0.00,,,0.01,1730,WeatherCatV1.15B25,2013-09-02 10:33:00,
2013-09-02 06:38:00,70.1,70.1,29.77,ESE,121,0.0,0.0,100,0.00,,,0.01,1730,WeatherCatV1.15B25,2013-09-02 10:38:00,
2013-09-02 06:43:00,70.2,70.2,29.77,ESE,121,0.0,0.0,100,0.00,,,0.01,1730,WeatherCatV1.15B25,2013-09-02 10:43:00,
2013-09-02 06:48:00,70.2,70.2,29.77,ESE,121,0.0,0.0,100,0.00,,,0.01,1730,WeatherCatV1.15B25,2013-09-02 10:48:00,
2013-09-02 06:53:00,70.3,70.3,29.77,ESE,121,0.0,0.0,100,0.00,,,0.01,1728,WeatherCatV1.15B25,2013-09-02 10:53:00,
2013-09-02 06:58:00,70.3,70.3,29.77,ESE,121,0.0,0.0,100,0.00,,,0.01,1728,WeatherCatV1.15B25,2013-09-02 10:58:00,
2013-09-02 07:03:00,70.3,70.3,29.77,ESE,121,0.0,0.0,100,0.00,,,0.01,1728,WeatherCatV1.15B25,2013-09-02 11:03:00,
2013-09-02 07:08:00,70.3,70.3,29.77,ESE,121,0.0,0.0,100,0.00,,,0.01,1728,WeatherCatV1.15B25,2013-09-02 11:08:00,
2013-09-02 07:13:00,70.4,70.4,29.77,ESE,121,0.0,0.0,100,0.00,,,0.01,1728,WeatherCatV1.15B25,2013-09-02 11:13:00,
2013-09-02 07:18:00,70.4,70.4,29.77,ESE,121,0.0,0.0,100,0.00,,,0.01,1728,WeatherCatV1.15B25,2013-09-02 11:18:00,
2013-09-02 07:23:00,70.4,70.4,29.77,ESE,121,0.0,0.0,100,0.00,,,0.01,1728,WeatherCatV1.15B25,2013-09-02 11:23:00,
2013-09-02 07:28:00,70.5,70.5,29.77,ESE,121,0.0,0.0,100,0.00,,,0.01,1728,WeatherCatV1.15B25,2013-09-02 11:28:00,
2013-09-02 07:33:00,70.5,70.5,29.77,ESE,121,0.0,0.0,100,0.00,,,0.01,1728,WeatherCatV1.15B25,2013-09-02 11:33:00,
2013-09-02 07:38:00,70.6,70.6,29.78,ESE,121,0.0,0.0,100,0.00,,,0.01,1728,WeatherCatV1.15B25,2013-09-02 11:38:00,
2013-09-02 07:43:00,70.6,70.6,29.77,ESE,121,0.0,0.0,100,0.00,,,0.01,1728,WeatherCatV1.15B25,2013-09-02 11:43:00,
2013-09-02 07:48:00,70.6,70.6,29.77,ESE,121,0.0,0.0,100,0.00,,,0.01,1728,WeatherCatV1.15B25,2013-09-02 11:48:00,
2013-09-02 07:53:00,70.7,70.7,29.77,ESE,121,0.0,0.0,100,0.00,,,0.01,1728,WeatherCatV1.15B25,2013-09-02 11:53:00,
2013-09-02 07:58:00,70.7,70.7,29.77,ESE,121,0.0,0.0,100,0.00,,,0.01,1728,WeatherCatV1.15B25,2013-09-02 11:58:00,
2013-09-02 08:03:00,70.8,70.8,29.77,ESE,121,0.0,0.0,100,0.00,,,0.01,1728,WeatherCatV1.15B25,2013-09-02 12:03:00,
2013-09-02 08:08:00,70.8,70.8,29.77,ESE,121,0.0,0.0,100,0.00,,,0.01,1726,WeatherCatV1.15B25,2013-09-02 12:08:00,
2013-09-02 08:13:00,70.9,70.9,29.77,ESE,121,0.0,0.0,100,0.00,,,0.01,1726,WeatherCatV1.15B25,2013-09-02 12:13:00,
2013-09-02 08:18:00,71.0,71.0,29.77,ESE,121,0.0,0.0,100,0.00,,,0.01,1726,WeatherCatV1.15B25,2013-09-02 12:18:00,
2013-09-02 08:23:00,71.1,71.1,29.77,ESE,121,0.0,0.0,100,0.00,,,0.01,1726,WeatherCatV1.15B25,2013-09-02 12:23:00,
2013-09-02 08:28:00,71.1,71.1,29.77,ESE,121,0.0,0.0,100,0.00,,,0.01,1726,WeatherCatV1.15B25,2013-09-02 12:28:00,
2013-09-02 08:33:00,71.1,71.1,29.77,ESE,121,0.0,0.0,100,0.00,,,0.01,1726,WeatherCatV1.15B25,2013-09-02 12:33:00,
2013-09-02 08:38:00,71.1,71.1,29.77,ESE,121,0.0,0.0,100,0.00,,,0.01,1726,WeatherCatV1.15B25,2013-09-02 12:38:00,
2013-09-02 08:43:00,71.1,71.1,29.77,ESE,121,0.0,0.0,100,0.00,,,0.01,1726,WeatherCatV1.15B25,2013-09-02 12:43:00,
2013-09-02 08:48:00,71.2,71.2,29.77,ESE,121,0.0,0.0,100,0.00,,,0.01,1726,WeatherCatV1.15B25,2013-09-02 12:48:00,
2013-09-02 08:53:00,71.1,71.1,29.77,ESE,121,0.0,0.0,100,0.00,,,0.01,1726,WeatherCatV1.15B25,2013-09-02 12:53:00,
2013-09-02 08:58:00,70.6,70.6,29.78,ESE,121,0.0,0.0,100,0.00,,,0.01,1726,WeatherCatV1.15B25,2013-09-02 12:58:00,
2013-09-02 09:03:00,69.8,69.8,29.78,ESE,121,0.0,0.0,100,0.00,,,0.01,1728,WeatherCatV1.15B25,2013-09-02 13:03:00,
2013-09-02 09:08:00,69.1,69.1,29.78,ESE,121,0.0,0.0,100,0.00,,,0.01,1728,WeatherCatV1.15B25,2013-09-02 13:08:00,
2013-09-02 09:13:00,68.3,68.3,29.78,ESE,121,0.0,0.0,100,0.00,,,0.01,1730,WeatherCatV1.15B25,2013-09-02 13:13:00,
2013-09-02 09:18:00,67.6,67.6,29.80,ESE,121,0.0,0.0,100,0.00,,,0.01,1731,WeatherCatV1.15B25,2013-09-02 13:18:00,
2013-09-02 09:23:00,67.2,67.2,29.80,ESE,121,0.0,0.0,100,0.00,,,0.01,1731,WeatherCatV1.15B25,2013-09-02 13:23:00,
2013-09-02 09:28:00,67.0,67.0,29.80,ESE,121,0.0,1.0,100,0.00,,,0.01,1733,WeatherCatV1.15B25,2013-09-02 13:28:00,
2013-09-02 09:33:00,66.8,66.8,29.78,ESE,121,0.0,0.0,100,0.00,,,0.01,1733,WeatherCatV1.15B25,2013-09-02 13:33:00,
2013-09-02 09:38:00,66.8,66.8,29.77,ESE,121,0.0,0.0,100,0.00,,,0.01,1733,WeatherCatV1.15B25,2013-09-02 13:38:00,
2013-09-02 09:43:00,67.0,67.0,29.77,ESE,121,0.0,0.0,100,0.00,,,0.01,1733,WeatherCatV1.15B25,2013-09-02 13:43:00,
2013-09-02 09:48:00,67.0,67.0,29.77,ESE,121,0.0,0.0,100,0.00,,,0.01,1733,WeatherCatV1.15B25,2013-09-02 13:48:00,
2013-09-02 09:53:00,66.9,66.9,29.77,ESE,121,0.0,0.0,100,0.00,,,0.01,1733,WeatherCatV1.15B25,2013-09-02 13:53:00,
2013-09-02 09:58:00,66.9,66.9,29.77,ESE,121,0.0,0.0,100,0.00,,,0.01,1733,WeatherCatV1.15B25,2013-09-02 13:58:00,
2013-09-02 10:03:00,66.9,66.9,29.77,ESE,121,0.0,0.0,100,0.00,,,0.01,1733,WeatherCatV1.15B25,2013-09-02 14:03:00,
2013-09-02 10:08:00,67.1,67.1,29.76,ESE,121,0.0,0.0,100,0.00,,,0.01,1731,WeatherCatV1.15B25,2013-09-02 14:08:00,
2013-09-02 10:13:00,67.2,67.2,29.77,ESE,121,0.0,0.0,100,0.00,,,0.01,1731,WeatherCatV1.15B25,2013-09-02 14:13:00,
2013-09-02 10:18:00,67.3,67.3,29.77,ESE,121,0.0,0.0,100,0.00,,,0.01,1731,WeatherCatV1.15B25,2013-09-02 14:18:00,
2013-09-02 10:23:00,67.5,67.5,29.77,ESE,121,0.0,0.0,100,0.00,,,0.01,1731,WeatherCatV1.15B25,2013-09-02 14:23:00,
2013-09-02 10:28:00,67.6,67.6,29.77,ESE,121,0.0,0.0,100,0.00,,,0.01,1731,WeatherCatV1.15B25,2013-09-02 14:28:00,
2013-09-02 10:33:00,67.6,67.6,29.77,ESE,121,0.0,0.0,100,0.00,,,0.01,1731,WeatherCatV1.15B25,2013-09-02 14:33:00,
2013-09-02 10:38:00,67.8,67.8,29.77,ESE,121,1.0,1.0,100,0.00,,,0.01,1731,WeatherCatV1.15B25,2013-09-02 14:38:00,
2013-09-02 10:43:00,68.0,68.0,29.77,ESE,121,0.0,0.0,100,0.00,,,0.01,1731,WeatherCatV1.15B25,2013-09-02 14:43:00,
2013-09-02 10:48:00,68.3,68.3,29.78,ESE,121,0.0,0.0,100,0.00,,,0.01,1730,WeatherCatV1.15B25,2013-09-02 14:48:00,
2013-09-02 10:53:00,68.4,68.4,29.78,ESE,121,0.0,0.0,100,0.00,,,0.01,1730,WeatherCatV1.15B25,2013-09-02 14:53:00,
2013-09-02 10:58:00,68.6,68.6,29.78,ESE,121,0.0,0.0,100,0.00,,,0.01,1730,WeatherCatV1.15B25,2013-09-02 14:58:00,
2013-09-02 11:03:00,68.8,68.8,29.78,ESE,121,0.0,0.0,100,0.00,,,0.01,1728,WeatherCatV1.15B25,2013-09-02 15:03:00,
2013-09-02 11:08:00,69.0,69.0,29.78,ESE,121,0.0,0.0,100,0.00,,,0.01,1728,WeatherCatV1.15B25,2013-09-02 15:08:00,
2013-09-02 11:13:00,69.3,69.3,29.78,ESE,121,0.0,0.0,100,0.00,,,0.01,1728,WeatherCatV1.15B25,2013-09-02 15:13:00,
2013-09-02 11:18:00,69.8,69.8,29.78,ESE,121,0.0,0.0,100,0.00,,,0.01,1726,WeatherCatV1.15B25,2013-09-02 15:18:00,
2013-09-02 11:23:00,70.3,70.3,29.78,ESE,121,0.0,0.0,100,0.00,,,0.01,1724,WeatherCatV1.15B25,2013-09-02 15:23:00,
2013-09-02 11:28:00,70.4,70.4,29.78,ESE,121,0.0,0.0,100,0.00,,,0.01,1724,WeatherCatV1.15B25,2013-09-02 15:28:00,
2013-09-02 11:33:00,70.3,70.3,29.78,ESE,121,0.0,0.0,100,0.00,,,0.02,1723,WeatherCatV1.15B25,2013-09-02 15:33:00,
2013-09-02 11:38:00,70.7,70.7,29.77,ESE,121,0.0,0.0,100,0.00,,,0.02,1723,WeatherCatV1.15B25,2013-09-02 15:38:00,
2013-09-02 11:43:00,70.4,70.4,29.77,ESE,121,0.0,0.0,100,0.00,,,0.02,1721,WeatherCatV1.15B25,2013-09-02 15:43:00,
2013-09-02 11:48:00,70.3,70.3,29.78,ESE,121,0.0,0.0,100,0.00,,,0.02,1721,WeatherCatV1.15B25,2013-09-02 15:48:00,
2013-09-02 11:53:00,70.4,70.4,29.77,ESE,121,0.0,0.0,100,0.00,,,0.02,1721,WeatherCatV1.15B25,2013-09-02 15:53:00,
2013-09-02 11:58:00,70.3,70.3,29.77,ESE,121,0.0,0.0,100,0.00,,,0.02,1721,WeatherCatV1.15B25,2013-09-02 15:58:00,
2013-09-02 12:03:00,70.3,70.3,29.77,ESE,121,0.0,0.0,100,0.00,,,0.02,1721,WeatherCatV1.15B25,2013-09-02 16:03:00,
2013-09-02 12:08:00,70.4,70.4,29.77,ESE,121,0.0,0.0,100,0.00,,,0.02,1721,WeatherCatV1.15B25,2013-09-02 16:08:00,
2013-09-02 12:13:00,70.5,70.5,29.77,ESE,121,0.0,0.0,100,0.00,,,0.02,1721,WeatherCatV1.15B25,2013-09-02 16:13:00,
2013-09-02 12:18:00,70.7,70.7,29.76,ESE,121,0.0,0.0,100,0.00,,,0.02,1721,WeatherCatV1.15B25,2013-09-02 16:18:00,
2013-09-02 12:23:00,70.7,70.7,29.76,ESE,121,0.0,0.0,100,0.00,,,0.02,1721,WeatherCatV1.15B25,2013-09-02 16:23:00,
2013-09-02 12:28:00,70.8,70.8,29.76,ESE,121,0.0,0.0,100,0.00,,,0.02,1721,WeatherCatV1.15B25,2013-09-02 16:28:00,
2013-09-02 12:33:00,71.0,71.0,29.76,ESE,121,0.0,0.0,100,0.00,,,0.02,1721,WeatherCatV1.15B25,2013-09-02 16:33:00,
2013-09-02 12:38:00,71.5,71.5,29.76,ESE,121,0.0,0.0,100,0.00,,,0.02,1721,WeatherCatV1.15B25,2013-09-02 16:38:00,
2013-09-02 12:43:00,71.6,71.6,29.76,ESE,121,0.0,0.0,100,0.00,,,0.02,1721,WeatherCatV1.15B25,2013-09-02 16:43:00,
2013-09-02 12:48:00,71.7,71.7,29.75,ESE,121,0.0,0.0,100,0.00,,,0.02,1721,WeatherCatV1.15B25,2013-09-02 16:48:00,
2013-09-02 12:53:00,71.9,71.9,29.75,ESE,121,0.0,0.0,100,0.00,,,0.02,1721,WeatherCatV1.15B25,2013-09-02 16:53:00,
2013-09-02 12:58:00,72.2,72.2,29.75,ESE,121,0.0,0.0,100,0.00,,,0.02,1721,WeatherCatV1.15B25,2013-09-02 16:58:00,
2013-09-02 13:03:00,72.4,72.4,29.75,SSW,202,0.0,0.0,100,0.00,,,0.02,1721,WeatherCatV1.15B25,2013-09-02 17:03:00,
2013-09-02 13:08:00,72.7,72.7,29.75,SSW,202,0.0,1.0,100,0.00,,,0.02,1721,WeatherCatV1.15B25,2013-09-02 17:08:00,
2013-09-02 13:13:00,72.8,72.8,29.74,SSW,202,0.0,0.0,100,0.00,,,0.02,1719,WeatherCatV1.15B25,2013-09-02 17:13:00,
2013-09-02 13:18:00,72.7,72.7,29.74,SSW,202,0.0,0.0,100,0.00,,,0.02,1721,WeatherCatV1.15B25,2013-09-02 17:18:00,
2013-09-02 13:23:00,72.6,72.6,29.74,WSW,240,0.0,0.0,100,0.00,,,0.02,1721,WeatherCatV1.15B25,2013-09-02 17:23:00,
2013-09-02 13:28:00,72.8,72.8,29.74,WSW,254,0.0,0.0,100,0.00,,,0.02,1721,WeatherCatV1.15B25,2013-09-02 17:28:00,
2013-09-02 13:33:00,72.8,72.8,29.74,WSW,254,0.0,0.0,100,0.00,,,0.02,1721,WeatherCatV1.15B25,2013-09-02 17:33:00,
2013-09-02 13:38:00,73.0,73.0,29.74,WSW,254,0.0,0.0,100,0.00,,,0.02,1721,WeatherCatV1.15B25,2013-09-02 17:38:00,
2013-09-02 13:43:00,73.1,73.1,29.74,WSW,254,0.0,0.0,100,0.00,,,0.02,1721,WeatherCatV1.15B25,2013-09-02 17:43:00,
2013-09-02 13:48:00,73.1,72.8,29.74,WSW,254,0.0,1.0,99,0.00,,,0.02,1721,WeatherCatV1.15B25,2013-09-02 17:48:00,
2013-09-02 13:53:00,73.3,73.0,29.75,WSW,254,0.0,1.0,99,0.00,,,0.02,1721,WeatherCatV1.15B25,2013-09-02 17:53:00,
2013-09-02 13:58:00,73.5,72.9,29.75,WSW,257,0.0,0.0,98,0.00,,,0.02,1721,WeatherCatV1.15B25,2013-09-02 17:58:00,
2013-09-02 14:03:00,73.8,73.5,29.75,WSW,257,0.0,0.0,99,0.00,,,0.02,1719,WeatherCatV1.15B25,2013-09-02 18:03:00,
2013-09-02 14:08:00,74.1,73.5,29.75,West,269,0.0,0.0,98,0.00,,,0.02,1719,WeatherCatV1.15B25,2013-09-02 18:08:00,
2013-09-02 14:13:00,74.1,73.2,29.74,West,268,0.0,0.0,97,0.00,,,0.02,1719,WeatherCatV1.15B25,2013-09-02 18:13:00,
2013-09-02 14:18:00,74.1,73.2,29.74,West,268,0.0,0.0,97,0.00,,,0.02,1719,WeatherCatV1.15B25,2013-09-02 18:18:00,
2013-09-02 14:23:00,74.1,72.9,29.74,West,263,0.0,1.0,96,0.00,,,0.02,1721,WeatherCatV1.15B25,2013-09-02 18:23:00,
2013-09-02 14:28:00,74.1,72.9,29.74,West,263,0.0,0.0,96,0.00,,,0.02,1721,WeatherCatV1.15B25,2013-09-02 18:28:00,
2013-09-02 14:33:00,74.2,73.0,29.73,West,263,0.0,0.0,96,0.00,,,0.02,1721,WeatherCatV1.15B25,2013-09-02 18:33:00,
2013-09-02 14:38:00,74.3,73.4,29.74,West,263,0.0,0.0,97,0.00,,,0.02,1721,WeatherCatV1.15B25,2013-09-02 18:38:00,
2013-09-02 14:43:00,74.3,73.1,29.74,SW,227,0.0,1.0,96,0.00,,,0.02,1721,WeatherCatV1.15B25,2013-09-02 18:43:00,
2013-09-02 14:48:00,74.4,73.5,29.74,SW,230,0.0,0.0,97,0.00,,,0.02,1721,WeatherCatV1.15B25,2013-09-02 18:48:00,
2013-09-02 14:53:00,74.3,73.4,29.74,SW,230,0.0,0.0,97,0.00,,,0.02,1721,WeatherCatV1.15B25,2013-09-02 18:53:00,
2013-09-02 14:58:00,74.4,73.5,29.74,SW,230,0.0,0.0,97,0.00,,,0.02,1721,WeatherCatV1.15B25,2013-09-02 18:58:00,
2013-09-02 15:03:00,74.4,73.5,29.74,SW,230,0.0,0.0,97,0.00,,,0.02,1721,WeatherCatV1.15B25,2013-09-02 19:03:00,
2013-09-02 15:08:00,74.5,73.6,29.73,SW,228,0.0,0.0,97,0.00,,,0.02,1721,WeatherCatV1.15B25,2013-09-02 19:08:00,
2013-09-02 15:13:00,74.5,73.6,29.74,SE,130,0.0,0.0,97,0.00,,,0.03,1721,WeatherCatV1.15B25,2013-09-02 19:13:00,
2013-09-02 15:18:00,74.6,73.7,29.73,SE,128,0.0,0.0,97,0.00,,,0.03,1719,WeatherCatV1.15B25,2013-09-02 19:18:00,
2013-09-02 15:23:00,74.9,73.7,29.73,SW,215,0.0,1.0,96,0.00,,,0.03,1719,WeatherCatV1.15B25,2013-09-02 19:23:00,
2013-09-02 15:28:00,74.9,73.7,29.73,SW,215,0.0,0.0,96,0.00,,,0.03,1719,WeatherCatV1.15B25,2013-09-02 19:28:00,
2013-09-02 15:33:00,74.8,73.3,29.73,SW,215,0.0,0.0,95,0.00,,,0.03,1719,WeatherCatV1.15B25,2013-09-02 19:33:00,
2013-09-02 15:38:00,74.8,73.6,29.73,SW,215,0.0,0.0,96,0.00,,,0.03,1719,WeatherCatV1.15B25,2013-09-02 19:38:00,
2013-09-02 15:43:00,74.6,73.4,29.72,SW,215,0.0,0.0,96,0.00,,,0.03,1719,WeatherCatV1.15B25,2013-09-02 19:43:00,
2013-09-02 15:48:00,74.6,73.4,29.72,East,83,0.0,0.0,96,0.00,,,0.03,1721,WeatherCatV1.15B25,2013-09-02 19:48:00,
2013-09-02 15:53:00,74.6,73.4,29.72,ESE,121,0.0,0.0,96,0.00,,,0.03,1721,WeatherCatV1.15B25,2013-09-02 19:53:00,
2013-09-02 15:58:00,74.3,72.8,29.72,ESE,119,0.0,0.0,95,0.19,,,0.07,1721,WeatherCatV1.15B25,2013-09-02 19:58:00,
2013-09-02 16:03:00,74.4,73.2,29.73,SW,225,0.0,0.0,96,0.07,,,0.07,1721,WeatherCatV1.15B25,2013-09-02 20:03:00,
2013-09-02 16:08:00,74.5,73.0,29.72,West,265,0.0,0.0,95,0.05,,,0.07,1721,WeatherCatV1.15B25,2013-09-02 20:08:00,
2013-09-02 16:13:00,74.6,73.4,29.71,SSW,196,0.0,0.0,96,0.00,,,0.07,1721,WeatherCatV1.15B25,2013-09-02 20:13:00,
2013-09-02 16:18:00,74.6,73.1,29.71,WSW,245,0.0,0.0,95,0.00,,,0.08,1721,WeatherCatV1.15B25,2013-09-02 20:18:00,
2013-09-02 16:23:00,74.7,73.5,29.71,WSW,244,0.0,0.0,96,0.00,,,0.08,1721,WeatherCatV1.15B25,2013-09-02 20:23:00,
2013-09-02 16:28:00,74.7,73.2,29.71,WSW,245,0.0,0.0,95,0.00,,,0.08,1721,WeatherCatV1.15B25,2013-09-02 20:28:00,
2013-09-02 16:33:00,74.6,73.1,29.71,WSW,250,0.0,0.0,95,0.00,,,0.08,1721,WeatherCatV1.15B25,2013-09-02 20:33:00,
2013-09-02 16:38:00,74.6,72.8,29.71,WSW,248,0.0,0.0,94,0.00,,,0.08,1721,WeatherCatV1.15B25,2013-09-02 20:38:00,
2013-09-02 16:43:00,74.6,73.1,29.71,ESE,117,0.0,0.0,95,0.38,,,0.09,1721,WeatherCatV1.15B25,2013-09-02 20:43:00,
2013-09-02 16:48:00,74.6,73.1,29.71,ESE,115,0.0,1.0,95,0.09,,,0.09,1721,WeatherCatV1.15B25,2013-09-02 20:48:00,
2013-09-02 16:53:00,74.7,73.2,29.71,ESE,116,0.0,0.0,95,0.05,,,0.09,1721,WeatherCatV1.15B25,2013-09-02 20:53:00,
2013-09-02 16:58:00,74.8,73.6,29.71,ESE,116,0.0,0.0,96,0.04,,,0.09,1723,WeatherCatV1.15B25,2013-09-02 20:58:00,
2013-09-02 17:03:00,74.8,73.3,29.71,ESE,115,0.0,0.0,95,0.00,,,0.09,1723,WeatherCatV1.15B25,2013-09-02 21:03:00,
2013-09-02 17:08:00,74.6,73.1,29.71,WSW,250,0.0,0.0,95,0.00,,,0.09,1723,WeatherCatV1.15B25,2013-09-02 21:08:00,
2013-09-02 17:13:00,74.4,72.9,29.71,WSW,249,0.0,0.0,95,0.00,,,0.09,1724,WeatherCatV1.15B25,2013-09-02 21:13:00,
2013-09-02 17:18:00,74.0,72.5,29.71,ESE,116,0.0,0.0,95,0.00,,,0.09,1724,WeatherCatV1.15B25,2013-09-02 21:18:00,
2013-09-02 17:23:00,73.8,72.3,29.71,ESE,115,0.0,0.0,95,0.00,,,0.09,1724,WeatherCatV1.15B25,2013-09-02 21:23:00,
2013-09-02 17:29:00,73.7,72.5,29.71,West,259,0.0,1.0,96,0.00,,,0.09,1726,WeatherCatV1.15B25,2013-09-02 21:29:00,
2013-09-02 17:34:00,73.6,72.4,29.71,WSW,251,0.0,0.0,96,0.00,,,0.09,1726,WeatherCatV1.15B25,2013-09-02 21:34:00,
2013-09-02 17:39:00,73.4,72.2,29.71,WSW,249,0.0,0.0,96,0.00,,,0.09,1726,WeatherCatV1.15B25,2013-09-02 21:39:00,
2013-09-02 17:44:00,73.3,72.1,29.72,WSW,249,0.0,0.0,96,0.00,,,0.09,1726,WeatherCatV1.15B25,2013-09-02 21:44:00,
2013-09-02 17:49:00,73.4,72.2,29.71,WSW,249,0.0,0.0,96,0.00,,,0.09,1728,WeatherCatV1.15B25,2013-09-02 21:49:00,
2013-09-02 17:54:00,73.4,72.2,29.71,WSW,249,0.0,1.0,96,0.00,,,0.09,1728,WeatherCatV1.15B25,2013-09-02 21:54:00,
2013-09-02 17:59:00,73.3,72.1,29.72,WSW,249,0.0,0.0,96,0.00,,,0.09,1728,WeatherCatV1.15B25,2013-09-02 21:59:00,
2013-09-02 18:04:00,73.3,72.4,29.73,WSW,249,0.0,0.0,97,0.00,,,0.09,1728,WeatherCatV1.15B25,2013-09-02 22:04:00,
2013-09-02 18:09:00,73.1,72.2,29.73,NNE,26,0.0,1.0,97,0.00,,,0.09,1728,WeatherCatV1.15B25,2013-09-02 22:09:00,
2013-09-02 18:14:00,71.7,69.2,29.72,NNE,28,0.0,2.0,92,0.00,,,0.09,1728,WeatherCatV1.15B25,2013-09-02 22:14:00,
2013-09-02 18:19:00,69.9,67.5,29.72,NE,46,0.0,1.0,92,0.00,,,0.09,1730,WeatherCatV1.15B25,2013-09-02 22:19:00,
2013-09-02 18:24:00,68.7,66.3,29.72,ESE,113,0.0,0.0,92,0.00,,,0.09,1731,WeatherCatV1.15B25,2013-09-02 22:24:00,
2013-09-02 18:29:00,68.0,66.2,29.72,ESE,113,0.0,0.0,94,0.00,,,0.09,1733,WeatherCatV1.15B25,2013-09-02 22:29:00,
2013-09-02 18:34:00,67.6,65.8,29.72,SE,137,0.0,1.0,94,0.00,,,0.09,1735,WeatherCatV1.15B25,2013-09-02 22:34:00,
2013-09-02 18:39:00,67.2,65.4,29.72,SE,138,0.0,0.0,94,0.00,,,0.09,1735,WeatherCatV1.15B25,2013-09-02 22:39:00,
2013-09-02 18:44:00,66.9,65.1,29.71,SE,138,0.0,0.0,94,0.00,,,0.09,1737,WeatherCatV1.15B25,2013-09-02 22:44:00,
2013-09-02 18:49:00,66.8,65.0,29.71,SE,138,0.0,0.0,94,0.00,,,0.09,1737,WeatherCatV1.15B25,2013-09-02 22:49:00,
2013-09-02 18:54:00,66.7,64.6,29.71,SE,138,0.0,0.0,93,0.00,,,0.09,1738,WeatherCatV1.15B25,2013-09-02 22:54:00,
2013-09-02 18:59:00,66.8,64.7,29.71,SE,138,0.0,0.0,93,0.00,,,0.09,1738,WeatherCatV1.15B25,2013-09-02 22:59:00,
2013-09-02 19:04:00,66.7,64.3,29.70,SE,137,0.0,0.0,92,0.00,,,0.09,1738,WeatherCatV1.15B25,2013-09-02 23:04:00,
2013-09-02 19:09:00,66.8,64.7,29.70,SE,138,0.0,0.0,93,0.00,,,0.09,1738,WeatherCatV1.15B25,2013-09-02 23:09:00,
2013-09-02 19:14:00,66.7,64.9,29.71,SE,138,0.0,0.0,94,0.00,,,0.09,1740,WeatherCatV1.15B25,2013-09-02 23:14:00,
2013-09-02 19:19:00,66.7,65.2,29.70,SE,138,0.0,0.0,95,14.05,,,0.14,1740,WeatherCatV1.15B25,2013-09-02 23:19:00,
2013-09-02 19:24:00,66.6,65.4,29.70,SE,138,0.0,0.0,96,0.78,,,0.17,1740,WeatherCatV1.15B25,2013-09-02 23:24:00,
2013-09-02 19:29:00,66.6,65.4,29.70,SE,138,0.0,0.0,96,0.15,,,0.19,1740,WeatherCatV1.15B25,2013-09-02 23:29:00,
2013-09-02 19:34:00,66.8,65.9,29.70,SE,138,0.0,0.0,97,0.12,,,0.20,1740,WeatherCatV1.15B25,2013-09-02 23:34:00,
2013-09-02 19:39:00,67.0,66.1,29.70,SE,137,0.0,0.0,97,0.40,,,0.27,1740,WeatherCatV1.15B25,2013-09-02 23:39:00,
2013-09-02 19:44:00,67.2,66.6,29.69,SE,138,0.0,0.0,98,14.05,,,0.48,1740,WeatherCatV1.15B25,2013-09-02 23:44:00,
2013-09-02 19:49:00,67.6,67.0,29.70,SE,138,0.0,0.0,98,0.15,,,0.55,1740,WeatherCatV1.15B25,2013-09-02 23:49:00,
2013-09-02 19:54:00,67.9,67.6,29.69,West,269,0.0,0.0,99,14.05,,,0.62,1740,WeatherCatV1.15B25,2013-09-02 23:54:00,
2013-09-02 19:59:00,68.2,67.9,29.69,West,269,0.0,0.0,99,2.34,,,0.74,1740,WeatherCatV1.15B25,2013-09-02 23:59:00,
2013-09-02 20:04:00,68.2,67.9,29.69,West,271,0.0,0.0,99,0.28,,,0.80,1740,WeatherCatV1.15B25,2013-09-03 00:04:00,
2013-09-02 20:09:00,68.4,68.1,29.69,West,270,0.0,0.0,99,14.05,,,1.66,1740,WeatherCatV1.15B25,2013-09-03 00:09:00,
2013-09-02 20:14:00,68.6,68.6,29.69,WSW,256,0.0,0.0,100,0.56,,,2.31,1738,WeatherCatV1.15B25,2013-09-03 00:14:00,
2013-09-02 20:19:00,68.9,68.9,29.69,West,263,0.0,0.0,100,0.27,,,2.49,1740,WeatherCatV1.15B25,2013-09-03 00:19:00,
2013-09-02 20:24:00,69.1,69.1,29.69,WSW,237,0.0,0.0,100,0.09,,,2.49,1738,WeatherCatV1.15B25,2013-09-03 00:24:00,
2013-09-02 20:29:00,69.3,69.3,29.70,WSW,249,0.0,0.0,100,0.15,,,2.57,1738,WeatherCatV1.15B25,2013-09-03 00:29:00,
2013-09-02 20:34:00,69.4,69.4,29.69,SW,229,0.0,0.0,100,0.22,,,2.59,1738,WeatherCatV1.15B25,2013-09-03 00:34:00,
2013-09-02 20:39:00,69.4,69.4,29.69,SSW,196,0.0,0.0,100,0.22,,,2.61,1738,WeatherCatV1.15B25,2013-09-03 00:39:00,
2013-09-02 20:44:00,69.6,69.6,29.69,WNW,286,0.0,0.0,100,0.09,,,2.62,1737,WeatherCatV1.15B25,2013-09-03 00:44:00,
2013-09-02 20:49:00,69.7,69.7,29.69,West,269,0.0,1.0,100,14.05,,,3.36,1738,WeatherCatV1.15B25,2013-09-03 00:49:00,
2013-09-02 20:54:00,69.7,69.7,29.69,SSW,209,0.0,0.0,100,14.40,,,4.50,1738,WeatherCatV1.15B25,2013-09-03 00:54:00,
2013-09-02 20:59:00,69.8,69.8,29.69,WSW,241,0.0,0.0,100,14.40,,,5.57,1737,WeatherCatV1.15B25,2013-09-03 00:59:00,
2013-09-02 21:04:00,69.8,69.8,29.70,SW,230,0.0,0.0,100,14.05,,,6.72,1737,WeatherCatV1.15B25,2013-09-03 01:04:00,
2013-09-02 21:09:00,69.8,69.8,29.70,SW,230,0.0,0.0,100,14.05,,,7.98,1737,WeatherCatV1.15B25,2013-09-03 01:09:00,
2013-09-02 21:14:00,69.8,69.8,29.70,SW,230,0.0,0.0,100,14.40,,,9.05,1737,WeatherCatV1.15B25,2013-09-03 01:14:00,
2013-09-02 21:19:00,69.8,69.8,29.70,WSW,238,0.0,0.0,100,14.40,,,10.28,1737,WeatherCatV1.15B25,2013-09-03 01:19:00,
2013-09-02 21:24:00,69.8,69.8,29.71,WSW,249,0.0,1.0,100,14.40,,,11.44,1737,WeatherCatV1.15B25,2013-09-03 01:24:00,
2013-09-02 21:29:00,69.7,69.7,29.71,WSW,250,0.0,0.0,100,14.40,,,12.55,1737,WeatherCatV1.15B25,2013-09-03 01:29:00,
2013-09-02 21:34:00,69.6,69.6,29.71,WSW,250,0.0,0.0,100,14.40,,,13.74,1737,WeatherCatV1.15B25,2013-09-03 01:34:00,
2013-09-02 21:39:00,69.5,69.5,29.72,WSW,240,0.0,0.0,100,14.40,,,14.93,1738,WeatherCatV1.15B25,2013-09-03 01:39:00,
2013-09-02 21:44:00,69.5,69.5,29.72,East,86,0.0,0.0,100,14.40,,,16.08,1737,WeatherCatV1.15B25,2013-09-03 01:44:00,
2013-09-02 21:49:00,69.4,69.4,29.72,East,86,0.0,0.0,100,14.05,,,17.12,1738,WeatherCatV1.15B25,2013-09-03 01:49:00,
2013-09-02 21:54:00,69.3,69.3,29.72,SW,217,0.0,0.0,100,0.13,,,17.14,1738,WeatherCatV1.15B25,2013-09-03 01:54:00,
2013-09-02 21:59:00,69.2,69.2,29.72,SW,217,0.0,0.0,100,0.06,,,17.14,1738,WeatherCatV1.15B25,2013-09-03 01:59:00,
2013-09-02 22:04:00,69.1,69.1,29.72,SW,226,0.0,0.0,100,11.08,,,17.32,1738,WeatherCatV1.15B25,2013-09-03 02:04:00,
2013-09-02 22:09:00,69.1,69.1,29.72,SW,227,0.0,0.0,100,0.14,,,17.45,1737,WeatherCatV1.15B25,2013-09-03 02:09:00,
2013-09-02 22:14:00,69.0,69.0,29.73,SW,227,0.0,0.0,100,0.07,,,17.45,1737,WeatherCatV1.15B25,2013-09-03 02:14:00,
2013-09-02 22:19:00,68.9,68.9,29.73,SW,227,0.0,0.0,100,19.86,,,17.97,1738,WeatherCatV1.15B25,2013-09-03 02:19:00,
2013-09-02 22:24:00,68.9,68.9,29.72,SW,227,0.0,0.0,100,15.57,,,18.54,1738,WeatherCatV1.15B25,2013-09-03 02:24:00,
2013-09-02 22:29:00,68.8,68.8,29.72,SW,227,0.0,0.0,100,0.78,,,18.97,1738,WeatherCatV1.15B25,2013-09-03 02:29:00,
2013-09-02 22:34:00,68.7,68.7,29.72,SW,227,0.0,0.0,100,0.11,,,18.97,1738,WeatherCatV1.15B25,2013-09-03 02:34:00,
2013-09-02 22:39:00,68.5,68.5,29.73,SW,227,0.0,0.0,100,0.67,,,19.62,1738,WeatherCatV1.15B25,2013-09-03 02:39:00,
2013-09-02 22:44:00,68.3,68.3,29.73,SW,227,0.0,0.0,100,14.05,,,20.56,1738,WeatherCatV1.15B25,2013-09-03 02:44:00,
2013-09-02 22:49:00,67.9,67.9,29.73,SW,227,0.0,0.0,100,14.40,,,21.74,1738,WeatherCatV1.15B25,2013-09-03 02:49:00,
2013-09-02 22:54:00,67.5,67.5,29.74,SW,227,0.0,0.0,100,0.20,,,22.22,1740,WeatherCatV1.15B25,2013-09-03 02:54:00,
2013-09-02 22:59:00,67.0,67.0,29.75,SW,227,0.0,0.0,100,14.05,,,22.46,1740,WeatherCatV1.15B25,2013-09-03 02:59:00,
2013-09-02 23:04:00,66.5,66.5,29.75,SW,227,0.0,0.0,100,0.78,,,22.59,1740,WeatherCatV1.15B25,2013-09-03 03:04:00,
2013-09-02 23:09:00,66.3,66.3,29.75,SW,227,0.0,0.0,100,0.11,,,22.59,1742,WeatherCatV1.15B25,2013-09-03 03:09:00,
2013-09-02 23:14:00,66.1,66.1,29.76,SW,227,0.0,0.0,100,0.22,,,22.62,1742,WeatherCatV1.15B25,2013-09-03 03:14:00,
2013-09-02 23:19:00,66.1,66.1,29.76,SW,227,0.0,0.0,100,0.08,,,22.62,1740,WeatherCatV1.15B25,2013-09-03 03:19:00,
2013-09-02 23:24:00,66.1,66.1,29.76,SW,227,0.0,0.0,100,0.05,,,22.62,1742,WeatherCatV1.15B25,2013-09-03 03:24:00,
2013-09-02 23:29:00,66.2,66.2,29.76,SW,227,0.0,0.0,100,0.00,,,22.62,1742,WeatherCatV1.15B25,2013-09-03 03:29:00,
2013-09-02 23:34:00,66.2,66.2,29.76,SW,227,0.0,0.0,100,0.00,,,22.62,1742,WeatherCatV1.15B25,2013-09-03 03:34:00,
2013-09-02 23:39:00,66.1,66.1,29.77,NNW,337,0.0,1.0,100,0.00,,,22.62,1742,WeatherCatV1.15B25,2013-09-03 03:39:00,
2013-09-02 23:44:00,65.9,65.9,29.77,NNW,329,0.0,0.0,100,0.00,,,22.62,1742,WeatherCatV1.15B25,2013-09-03 03:44:00,
2013-09-02 23:49:00,65.7,65.7,29.77,NNW,330,0.0,0.0,100,0.00,,,22.62,1742,WeatherCatV1.15B25,2013-09-03 03:49:00,
2013-09-02 23:54:00,65.8,65.8,29.77,NE,37,0.0,0.0,100,0.00,,,22.62,1742,WeatherCatV1.15B25,2013-09-03 03:54:00,
2013-09-02 23:59:00,65.6,65.6,29.78,NE,38,0.0,0.0,100,0.00,,,22.62,1742,WeatherCatV1.15B25,2013-09-03 03:59:00,